Погода Рунныйна 2 недели

Ростовская область, Россия

12 - 25 июля
  • 12июля
    Сегодня
    +18°
    +36°
    Ясно и безоблачно
    ВремяПогодаТемператураВлажностьДавлениеВетер, м/сВероятность осадков
    00:00Облачно с прояснениями+27°C35 %756 мм3.3 м/с2 %
    03:00Практически безоблачно+23°C46 %756 мм2.4 м/с2 %
    06:00Практически безоблачно+24°C45 %756 мм3.7 м/с2 %
    09:00Ясно и безоблачно+30°C37 %756 мм4.4 м/с2 %
    12:00Ясно и безоблачно+34°C26 %756 мм4.0 м/с2 %
    15:00Ясно и безоблачно+35°C20 %755 мм4.3 м/с2 %
    18:00Ясно и безоблачно+33°C19 %755 мм4.5 м/с2 %
    21:00Ясно и безоблачно+27°C29 %755 мм3.8 м/с2 %
  • 13июля
    Суббота
    +18°
    +33°
    Ясно и безоблачно
    ВремяПогодаТемператураВлажностьДавлениеВетер, м/сВероятность осадков
    00:00Ясно и безоблачно+22°C33 %755 мм3.3 м/с2 %
    03:00Ясно и безоблачно+19°C42 %755 мм2.1 м/с2 %
    06:00Ясно и безоблачно+21°C44 %756 мм2.5 м/с2 %
    09:00Ясно и безоблачно+28°C27 %756 мм3.7 м/с2 %
    12:00Ясно и безоблачно+31°C22 %755 мм2.9 м/с2 %
    15:00Ясно и безоблачно+33°C18 %754 мм3.2 м/с2 %
    18:00Ясно и безоблачно+31°C17 %754 мм3.7 м/с2 %
    21:00Ясно и безоблачно+25°C21 %754 мм3.9 м/с2 %
  • 14июля
    Воскресенье
    +20°
    +34°
    Ясно и безоблачно
    ВремяПогодаТемператураВлажностьДавлениеВетер, м/сВероятность осадков
    00:00Ясно и безоблачно+21°C31 %754 мм3.3 м/с2 %
    03:00Ясно и безоблачно+19°C40 %754 мм3.1 м/с2 %
    06:00Ясно и безоблачно+20°C44 %755 мм3.3 м/с2 %
    09:00Ясно и безоблачно+28°C26 %755 мм2.9 м/с2 %
    12:00Ясно и безоблачно+31°C20 %754 мм2.6 м/с2 %
    15:00Ясно и безоблачно+34°C16 %754 мм3.4 м/с2 %
    18:00Ясно и безоблачно+33°C20 %753 мм3.7 м/с2 %
    21:00Ясно и безоблачно+26°C34 %754 мм2.5 м/с2 %
  • 15июля
    Понедельник
    +24°
    +38°
    Ясно и безоблачно
    ВремяПогодаТемператураВлажностьДавлениеВетер, м/сВероятность осадков
    00:00Ясно и безоблачно+23°C39 %754 мм3.2 м/с2 %
    03:00Ясно и безоблачно+21°C46 %754 мм2.6 м/с2 %
    06:00Ясно и безоблачно+23°C48 %754 мм2.4 м/с2 %
    09:00Ясно и безоблачно+31°C33 %755 мм3.0 м/с2 %
    12:00Ясно и безоблачно+35°C25 %754 мм2.7 м/с2 %
    15:00Ясно и безоблачно+37°C22 %753 мм2.0 м/с2 %
    18:00Практически безоблачно+36°C21 %753 мм3.3 м/с2 %
    21:00Ясно и безоблачно+31°C28 %754 мм5.0 м/с2 %
  • 16июля
    Вторник
    +24°
    +39°
    Практически безоблачно
    ВремяПогодаТемператураВлажностьДавлениеВетер, м/сВероятность осадков
    00:00Ясно и безоблачно+27°C34 %754 мм3.1 м/с2 %
    03:00Ясно и безоблачно+25°C43 %754 мм2.3 м/с2 %
    06:00Ясно и безоблачно+26°C47 %754 мм2.3 м/с2 %
    09:00Ясно и безоблачно+33°C30 %755 мм2.9 м/с2 %
    12:00Ясно и безоблачно+37°C22 %755 мм3.1 м/с2 %
    15:00Практически безоблачно+38°C20 %754 мм3.4 м/с2 %
    18:00Небольшая облачность+38°C22 %753 мм3.4 м/с2 %
    21:00Ясно и безоблачно+31°C29 %754 мм2.7 м/с2 %
Мы используем cookies
Соглашаюсь